sensor_id;sensor_type;location;lat;lon;timestamp;temperature;humidity
52943;DHT22;38809;53.300;6.614;2023-07-24T00:01:17;17.50;99.90
52943;DHT22;38809;53.300;6.614;2023-07-24T00:03:44;17.40;99.90
52943;DHT22;38809;53.300;6.614;2023-07-24T00:06:10;17.40;99.90
52943;DHT22;38809;53.300;6.614;2023-07-24T00:08:35;17.30;99.90
52943;DHT22;38809;53.300;6.614;2023-07-24T00:11:01;17.30;99.90
52943;DHT22;38809;53.300;6.614;2023-07-24T00:13:30;17.30;99.90
52943;DHT22;38809;53.300;6.614;2023-07-24T00:15:57;17.30;99.90
52943;DHT22;38809;53.300;6.614;2023-07-24T00:18:22;17.30;99.90
52943;DHT22;38809;53.300;6.614;2023-07-24T00:20:48;17.30;99.90
52943;DHT22;38809;53.300;6.614;2023-07-24T00:23:14;17.30;99.90
52943;DHT22;38809;53.300;6.614;2023-07-24T00:25:39;17.30;99.90
52943;DHT22;38809;53.300;6.614;2023-07-24T00:28:05;17.20;99.90
52943;DHT22;38809;53.300;6.614;2023-07-24T00:30:31;17.30;99.90
52943;DHT22;38809;53.300;6.614;2023-07-24T00:32:57;17.30;99.90
52943;DHT22;38809;53.300;6.614;2023-07-24T00:35:23;17.30;99.90
52943;DHT22;38809;53.300;6.614;2023-07-24T00:37:48;17.30;99.90
52943;DHT22;38809;53.300;6.614;2023-07-24T00:40:14;17.20;99.90
52943;DHT22;38809;53.300;6.614;2023-07-24T00:42:40;17.20;99.90
52943;DHT22;38809;53.300;6.614;2023-07-24T00:45:06;17.20;99.90
52943;DHT22;38809;53.300;6.614;2023-07-24T00:47:31;17.20;99.90
52943;DHT22;38809;53.300;6.614;2023-07-24T00:49:57;17.20;99.90
52943;DHT22;38809;53.300;6.614;2023-07-24T00:52:23;17.20;99.90
52943;DHT22;38809;53.300;6.614;2023-07-24T00:54:49;16.70;99.90
52943;DHT22;38809;53.300;6.614;2023-07-24T00:57:15;17.10;99.90
52943;DHT22;38809;53.300;6.614;2023-07-24T00:59:42;17.10;99.90
52943;DHT22;38809;53.300;6.614;2023-07-24T01:02:08;17.10;99.90
52943;DHT22;38809;53.300;6.614;2023-07-24T01:04:34;17.10;99.90
52943;DHT22;38809;53.300;6.614;2023-07-24T01:07:00;17.10;99.90
52943;DHT22;38809;53.300;6.614;2023-07-24T01:09:25;17.00;99.90
52943;DHT22;38809;53.300;6.614;2023-07-24T01:12:34;17.00;99.90
52943;DHT22;38809;53.300;6.614;2023-07-24T01:15:01;17.00;99.90
52943;DHT22;38809;53.300;6.614;2023-07-24T01:17:29;17.00;99.90
52943;DHT22;38809;53.300;6.614;2023-07-24T01:19:58;17.00;99.90
52943;DHT22;38809;53.300;6.614;2023-07-24T01:27:45;17.00;99.90
52943;DHT22;38809;53.300;6.614;2023-07-24T01:30:13;16.90;99.90
52943;DHT22;38809;53.300;6.614;2023-07-24T01:32:39;16.90;99.90
52943;DHT22;38809;53.300;6.614;2023-07-24T01:35:05;16.80;99.90
52943;DHT22;38809;53.300;6.614;2023-07-24T01:37:32;16.80;99.90
52943;DHT22;38809;53.300;6.614;2023-07-24T01:39:59;16.60;99.90
52943;DHT22;38809;53.300;6.614;2023-07-24T01:42:25;16.80;99.90
52943;DHT22;38809;53.300;6.614;2023-07-24T01:44:52;16.80;99.90
52943;DHT22;38809;53.300;6.614;2023-07-24T01:47:18;16.70;99.90
52943;DHT22;38809;53.300;6.614;2023-07-24T01:49:44;16.80;99.90
52943;DHT22;38809;53.300;6.614;2023-07-24T01:52:10;16.70;99.90
52943;DHT22;38809;53.300;6.614;2023-07-24T01:54:35;16.70;99.90
52943;DHT22;38809;53.300;6.614;2023-07-24T01:57:01;16.80;99.90
52943;DHT22;38809;53.300;6.614;2023-07-24T01:59:26;16.70;99.90
52943;DHT22;38809;53.300;6.614;2023-07-24T02:01:52;16.80;99.90
52943;DHT22;38809;53.300;6.614;2023-07-24T02:04:18;16.80;99.90
52943;DHT22;38809;53.300;6.614;2023-07-24T02:06:50;16.80;99.90
52943;DHT22;38809;53.300;6.614;2023-07-24T02:09:17;16.80;99.90
52943;DHT22;38809;53.300;6.614;2023-07-24T02:11:43;16.80;99.90
52943;DHT22;38809;53.300;6.614;2023-07-24T02:14:09;16.80;99.90
52943;DHT22;38809;53.300;6.614;2023-07-24T02:16:35;16.90;99.90
52943;DHT22;38809;53.300;6.614;2023-07-24T02:19:01;16.80;99.90
52943;DHT22;38809;53.300;6.614;2023-07-24T02:21:27;16.80;99.90
52943;DHT22;38809;53.300;6.614;2023-07-24T02:23:53;16.80;99.90
52943;DHT22;38809;53.300;6.614;2023-07-24T02:26:18;16.70;99.90
52943;DHT22;38809;53.300;6.614;2023-07-24T02:28:44;16.70;99.90
52943;DHT22;38809;53.300;6.614;2023-07-24T02:31:10;16.80;99.90
52943;DHT22;38809;53.300;6.614;2023-07-24T02:33:35;16.70;99.90
52943;DHT22;38809;53.300;6.614;2023-07-24T02:36:01;15.70;99.90
52943;DHT22;38809;53.300;6.614;2023-07-24T02:38:27;16.70;99.90
52943;DHT22;38809;53.300;6.614;2023-07-24T02:40:53;16.70;99.90
52943;DHT22;38809;53.300;6.614;2023-07-24T02:43:18;16.60;99.90
52943;DHT22;38809;53.300;6.614;2023-07-24T02:45:44;16.70;99.90
52943;DHT22;38809;53.300;6.614;2023-07-24T02:48:10;16.90;99.90
52943;DHT22;38809;53.300;6.614;2023-07-24T02:50:35;16.60;99.90
52943;DHT22;38809;53.300;6.614;2023-07-24T02:53:01;16.60;99.90
52943;DHT22;38809;53.300;6.614;2023-07-24T02:55:27;16.50;99.90
52943;DHT22;38809;53.300;6.614;2023-07-24T02:57:53;16.60;99.90
52943;DHT22;38809;53.300;6.614;2023-07-24T03:00:19;16.60;99.90
52943;DHT22;38809;53.300;6.614;2023-07-24T03:02:44;16.70;99.90
52943;DHT22;38809;53.300;6.614;2023-07-24T03:05:10;16.60;99.90
52943;DHT22;38809;53.300;6.614;2023-07-24T03:07:36;16.60;99.90
52943;DHT22;38809;53.300;6.614;2023-07-24T03:10:02;16.70;99.90
52943;DHT22;38809;53.300;6.614;2023-07-24T03:12:28;16.70;99.90
52943;DHT22;38809;53.300;6.614;2023-07-24T03:14:54;16.60;99.90
52943;DHT22;38809;53.300;6.614;2023-07-24T03:17:20;16.70;99.90
52943;DHT22;38809;53.300;6.614;2023-07-24T03:19:47;16.70;99.90
52943;DHT22;38809;53.300;6.614;2023-07-24T03:22:13;16.70;99.90
52943;DHT22;38809;53.300;6.614;2023-07-24T03:24:39;16.70;99.90
52943;DHT22;38809;53.300;6.614;2023-07-24T03:27:04;16.80;99.90
52943;DHT22;38809;53.300;6.614;2023-07-24T03:29:30;16.70;99.90
52943;DHT22;38809;53.300;6.614;2023-07-24T03:31:56;16.80;99.90
52943;DHT22;38809;53.300;6.614;2023-07-24T03:34:21;16.80;99.90
52943;DHT22;38809;53.300;6.614;2023-07-24T03:36:47;16.80;99.90
52943;DHT22;38809;53.300;6.614;2023-07-24T03:39:13;16.80;99.90
52943;DHT22;38809;53.300;6.614;2023-07-24T03:41:39;16.80;99.90
52943;DHT22;38809;53.300;6.614;2023-07-24T03:44:05;16.90;99.90
52943;DHT22;38809;53.300;6.614;2023-07-24T03:46:32;16.90;99.90
52943;DHT22;38809;53.300;6.614;2023-07-24T03:48:58;16.90;99.90
52943;DHT22;38809;53.300;6.614;2023-07-24T03:51:23;16.90;99.90
52943;DHT22;38809;53.300;6.614;2023-07-24T03:53:49;16.90;99.90
52943;DHT22;38809;53.300;6.614;2023-07-24T03:56:15;16.90;99.90
52943;DHT22;38809;53.300;6.614;2023-07-24T03:58:40;16.90;99.90
52943;DHT22;38809;53.300;6.614;2023-07-24T04:01:06;16.90;99.90
52943;DHT22;38809;53.300;6.614;2023-07-24T04:03:32;16.90;99.90
52943;DHT22;38809;53.300;6.614;2023-07-24T04:05:58;16.90;99.90
52943;DHT22;38809;53.300;6.614;2023-07-24T04:08:24;16.90;99.90
52943;DHT22;38809;53.300;6.614;2023-07-24T04:10:50;16.90;99.90
52943;DHT22;38809;53.300;6.614;2023-07-24T04:13:15;16.90;99.90
52943;DHT22;38809;53.300;6.614;2023-07-24T04:15:41;16.50;99.90
52943;DHT22;38809;53.300;6.614;2023-07-24T04:18:07;17.00;99.90
52943;DHT22;38809;53.300;6.614;2023-07-24T04:20:32;17.00;99.90
52943;DHT22;38809;53.300;6.614;2023-07-24T04:22:58;17.10;99.90
52943;DHT22;38809;53.300;6.614;2023-07-24T04:25:24;17.00;99.90
52943;DHT22;38809;53.300;6.614;2023-07-24T04:27:49;17.00;99.90
52943;DHT22;38809;53.300;6.614;2023-07-24T04:30:15;17.10;99.90
52943;DHT22;38809;53.300;6.614;2023-07-24T04:32:41;17.00;99.90
52943;DHT22;38809;53.300;6.614;2023-07-24T04:35:08;17.00;99.90
52943;DHT22;38809;53.300;6.614;2023-07-24T04:37:34;17.00;99.90
52943;DHT22;38809;53.300;6.614;2023-07-24T04:39:59;17.10;99.90
52943;DHT22;38809;53.300;6.614;2023-07-24T04:42:25;17.10;99.90
52943;DHT22;38809;53.300;6.614;2023-07-24T04:44:51;17.10;99.90
52943;DHT22;38809;53.300;6.614;2023-07-24T04:47:17;17.10;99.90
52943;DHT22;38809;53.300;6.614;2023-07-24T04:49:43;17.10;99.90
52943;DHT22;38809;53.300;6.614;2023-07-24T04:52:08;17.10;99.90
52943;DHT22;38809;53.300;6.614;2023-07-24T04:54:34;17.10;99.90
52943;DHT22;38809;53.300;6.614;2023-07-24T04:57:00;17.10;99.90
52943;DHT22;38809;53.300;6.614;2023-07-24T04:59:25;17.10;99.90
52943;DHT22;38809;53.300;6.614;2023-07-24T05:01:51;17.10;99.90
52943;DHT22;38809;53.300;6.614;2023-07-24T05:04:17;17.10;99.90
52943;DHT22;38809;53.300;6.614;2023-07-24T05:06:42;17.10;99.90
52943;DHT22;38809;53.300;6.614;2023-07-24T05:09:08;17.10;99.90
52943;DHT22;38809;53.300;6.614;2023-07-24T05:11:34;17.10;99.90
52943;DHT22;38809;53.300;6.614;2023-07-24T05:13:59;17.20;99.90
52943;DHT22;38809;53.300;6.614;2023-07-24T05:16:25;17.10;99.90
52943;DHT22;38809;53.300;6.614;2023-07-24T05:18:51;17.20;99.90
52943;DHT22;38809;53.300;6.614;2023-07-24T05:21:16;17.10;99.90
52943;DHT22;38809;53.300;6.614;2023-07-24T05:23:42;17.10;99.90
52943;DHT22;38809;53.300;6.614;2023-07-24T05:26:08;17.10;99.90
52943;DHT22;38809;53.300;6.614;2023-07-24T05:28:34;17.30;99.90
52943;DHT22;38809;53.300;6.614;2023-07-24T05:31:05;17.20;99.90
52943;DHT22;38809;53.300;6.614;2023-07-24T05:33:31;17.20;99.90
52943;DHT22;38809;53.300;6.614;2023-07-24T05:36:00;17.20;99.90
52943;DHT22;38809;53.300;6.614;2023-07-24T05:38:27;17.70;99.90
52943;DHT22;38809;53.300;6.614;2023-07-24T05:41:00;17.30;99.90
52943;DHT22;38809;53.300;6.614;2023-07-24T05:43:27;17.40;99.90
52943;DHT22;38809;53.300;6.614;2023-07-24T05:45:54;17.30;99.90
52943;DHT22;38809;53.300;6.614;2023-07-24T05:48:20;17.30;99.90
52943;DHT22;38809;53.300;6.614;2023-07-24T05:50:46;17.40;99.90
52943;DHT22;38809;53.300;6.614;2023-07-24T05:53:13;17.30;99.90
52943;DHT22;38809;53.300;6.614;2023-07-24T05:55:38;17.40;99.90
52943;DHT22;38809;53.300;6.614;2023-07-24T05:58:04;17.30;99.90
52943;DHT22;38809;53.300;6.614;2023-07-24T06:00:30;17.40;99.90
52943;DHT22;38809;53.300;6.614;2023-07-24T06:02:56;17.40;99.90
52943;DHT22;38809;53.300;6.614;2023-07-24T06:05:21;17.30;99.90
52943;DHT22;38809;53.300;6.614;2023-07-24T06:07:47;17.30;99.90
52943;DHT22;38809;53.300;6.614;2023-07-24T06:10:13;17.30;99.90
52943;DHT22;38809;53.300;6.614;2023-07-24T06:12:39;17.30;99.90
52943;DHT22;38809;53.300;6.614;2023-07-24T06:15:05;17.30;99.90
52943;DHT22;38809;53.300;6.614;2023-07-24T06:17:31;17.20;99.90
52943;DHT22;38809;53.300;6.614;2023-07-24T06:19:57;17.20;99.90
52943;DHT22;38809;53.300;6.614;2023-07-24T06:22:23;17.30;99.90
52943;DHT22;38809;53.300;6.614;2023-07-24T06:24:49;17.30;99.90
52943;DHT22;38809;53.300;6.614;2023-07-24T06:27:15;17.40;99.90
52943;DHT22;38809;53.300;6.614;2023-07-24T06:29:41;17.40;99.90
52943;DHT22;38809;53.300;6.614;2023-07-24T06:32:07;17.50;99.90
52943;DHT22;38809;53.300;6.614;2023-07-24T06:34:33;17.60;99.90
52943;DHT22;38809;53.300;6.614;2023-07-24T06:36:59;17.60;99.90
52943;DHT22;38809;53.300;6.614;2023-07-24T06:39:25;17.70;99.90
52943;DHT22;38809;53.300;6.614;2023-07-24T06:41:54;17.80;99.90
52943;DHT22;38809;53.300;6.614;2023-07-24T06:44:20;17.90;99.90
52943;DHT22;38809;53.300;6.614;2023-07-24T06:46:45;18.10;99.90
52943;DHT22;38809;53.300;6.614;2023-07-24T06:49:11;18.10;99.90
52943;DHT22;38809;53.300;6.614;2023-07-24T06:51:37;18.10;99.90
52943;DHT22;38809;53.300;6.614;2023-07-24T06:54:04;18.60;99.90
52943;DHT22;38809;53.300;6.614;2023-07-24T06:56:30;18.20;99.90
52943;DHT22;38809;53.300;6.614;2023-07-24T06:58:56;18.40;99.90
52943;DHT22;38809;53.300;6.614;2023-07-24T07:01:22;18.40;99.90
52943;DHT22;38809;53.300;6.614;2023-07-24T07:03:47;18.40;99.90
52943;DHT22;38809;53.300;6.614;2023-07-24T07:06:13;18.30;99.90
52943;DHT22;38809;53.300;6.614;2023-07-24T07:08:39;18.40;99.90
52943;DHT22;38809;53.300;6.614;2023-07-24T07:11:05;18.50;99.90
52943;DHT22;38809;53.300;6.614;2023-07-24T07:13:30;18.50;99.90
52943;DHT22;38809;53.300;6.614;2023-07-24T07:15:56;18.60;99.90
52943;DHT22;38809;53.300;6.614;2023-07-24T07:18:22;18.60;99.90
52943;DHT22;38809;53.300;6.614;2023-07-24T07:20:49;18.50;99.90
52943;DHT22;38809;53.300;6.614;2023-07-24T07:23:15;18.50;99.90
52943;DHT22;38809;53.300;6.614;2023-07-24T07:25:41;18.60;99.90
52943;DHT22;38809;53.300;6.614;2023-07-24T07:28:09;18.50;99.90
52943;DHT22;38809;53.300;6.614;2023-07-24T07:30:34;18.60;99.90
52943;DHT22;38809;53.300;6.614;2023-07-24T07:33:00;18.60;99.90
52943;DHT22;38809;53.300;6.614;2023-07-24T07:35:26;18.60;99.90
52943;DHT22;38809;53.300;6.614;2023-07-24T07:37:52;18.60;99.90
52943;DHT22;38809;53.300;6.614;2023-07-24T07:40:18;18.60;99.90
52943;DHT22;38809;53.300;6.614;2023-07-24T07:42:43;18.70;99.90
52943;DHT22;38809;53.300;6.614;2023-07-24T07:45:10;18.70;99.90
52943;DHT22;38809;53.300;6.614;2023-07-24T07:47:36;18.80;99.90
52943;DHT22;38809;53.300;6.614;2023-07-24T07:50:02;18.80;99.90
52943;DHT22;38809;53.300;6.614;2023-07-24T07:52:28;18.80;99.90
52943;DHT22;38809;53.300;6.614;2023-07-24T07:54:54;18.90;99.90
52943;DHT22;38809;53.300;6.614;2023-07-24T07:57:19;19.00;99.90
52943;DHT22;38809;53.300;6.614;2023-07-24T07:59:45;19.10;99.90
52943;DHT22;38809;53.300;6.614;2023-07-24T08:02:11;19.10;99.90
52943;DHT22;38809;53.300;6.614;2023-07-24T08:04:36;18.10;99.90
52943;DHT22;38809;53.300;6.614;2023-07-24T08:07:02;19.20;99.90
52943;DHT22;38809;53.300;6.614;2023-07-24T08:09:28;19.20;99.90
52943;DHT22;38809;53.300;6.614;2023-07-24T08:11:54;19.40;99.90
52943;DHT22;38809;53.300;6.614;2023-07-24T08:14:19;19.40;99.90
52943;DHT22;38809;53.300;6.614;2023-07-24T08:16:48;19.40;99.90
52943;DHT22;38809;53.300;6.614;2023-07-24T08:19:13;19.60;99.90
52943;DHT22;38809;53.300;6.614;2023-07-24T08:21:39;19.60;99.90
52943;DHT22;38809;53.300;6.614;2023-07-24T08:24:06;19.70;99.90
52943;DHT22;38809;53.300;6.614;2023-07-24T08:26:31;19.70;99.90
52943;DHT22;38809;53.300;6.614;2023-07-24T08:28:57;19.70;99.90
52943;DHT22;38809;53.300;6.614;2023-07-24T08:31:23;19.60;99.90
52943;DHT22;38809;53.300;6.614;2023-07-24T08:33:49;19.50;99.90
52943;DHT22;38809;53.300;6.614;2023-07-24T08:36:15;19.10;99.90
52943;DHT22;38809;53.300;6.614;2023-07-24T08:38:41;19.30;99.90
52943;DHT22;38809;53.300;6.614;2023-07-24T08:41:09;19.40;99.90
52943;DHT22;38809;53.300;6.614;2023-07-24T08:43:37;19.50;99.90
52943;DHT22;38809;53.300;6.614;2023-07-24T08:46:04;19.20;99.90
52943;DHT22;38809;53.300;6.614;2023-07-24T08:48:35;19.50;99.90
52943;DHT22;38809;53.300;6.614;2023-07-24T08:51:08;19.60;99.90
52943;DHT22;38809;53.300;6.614;2023-07-24T08:53:41;19.70;99.90
52943;DHT22;38809;53.300;6.614;2023-07-24T08:56:09;19.80;99.90
52943;DHT22;38809;53.300;6.614;2023-07-24T08:58:35;20.00;99.90
52943;DHT22;38809;53.300;6.614;2023-07-24T09:01:03;20.00;99.90
52943;DHT22;38809;53.300;6.614;2023-07-24T09:03:30;20.30;99.90
52943;DHT22;38809;53.300;6.614;2023-07-24T09:05:56;20.50;99.90
52943;DHT22;38809;53.300;6.614;2023-07-24T09:08:32;20.50;99.90
52943;DHT22;38809;53.300;6.614;2023-07-24T09:10:59;20.80;99.90
52943;DHT22;38809;53.300;6.614;2023-07-24T09:13:25;20.80;99.90
52943;DHT22;38809;53.300;6.614;2023-07-24T09:15:51;20.80;99.90
52943;DHT22;38809;53.300;6.614;2023-07-24T09:18:17;20.60;99.90
52943;DHT22;38809;53.300;6.614;2023-07-24T09:20:44;20.60;99.90
52943;DHT22;38809;53.300;6.614;2023-07-24T09:23:11;20.50;99.90
52943;DHT22;38809;53.300;6.614;2023-07-24T09:25:39;20.60;99.90
52943;DHT22;38809;53.300;6.614;2023-07-24T09:28:24;20.50;99.90
52943;DHT22;38809;53.300;6.614;2023-07-24T09:30:58;20.60;99.90
52943;DHT22;38809;53.300;6.614;2023-07-24T09:33:39;20.70;99.90
52943;DHT22;38809;53.300;6.614;2023-07-24T09:36:06;20.70;99.90
52943;DHT22;38809;53.300;6.614;2023-07-24T09:38:40;21.30;99.90
52943;DHT22;38809;53.300;6.614;2023-07-24T09:41:06;21.40;99.90
52943;DHT22;38809;53.300;6.614;2023-07-24T09:43:32;21.80;99.90
52943;DHT22;38809;53.300;6.614;2023-07-24T09:45:58;21.60;99.90
52943;DHT22;38809;53.300;6.614;2023-07-24T09:48:25;21.80;99.90
52943;DHT22;38809;53.300;6.614;2023-07-24T09:50:56;21.50;99.90
52943;DHT22;38809;53.300;6.614;2023-07-24T09:55:58;21.90;99.90
52943;DHT22;38809;53.300;6.614;2023-07-24T09:58:25;21.60;99.90
52943;DHT22;38809;53.300;6.614;2023-07-24T10:00:52;21.60;99.90
52943;DHT22;38809;53.300;6.614;2023-07-24T10:03:18;21.60;99.90
52943;DHT22;38809;53.300;6.614;2023-07-24T10:05:46;22.10;99.90
52943;DHT22;38809;53.300;6.614;2023-07-24T10:08:16;22.60;99.90
52943;DHT22;38809;53.300;6.614;2023-07-24T10:10:42;22.70;99.90
52943;DHT22;38809;53.300;6.614;2023-07-24T10:13:09;23.00;99.90
52943;DHT22;38809;53.300;6.614;2023-07-24T10:15:43;23.10;99.90
52943;DHT22;38809;53.300;6.614;2023-07-24T10:18:09;23.20;99.90
52943;DHT22;38809;53.300;6.614;2023-07-24T10:20:37;23.50;99.90
52943;DHT22;38809;53.300;6.614;2023-07-24T10:23:05;23.50;99.90
52943;DHT22;38809;53.300;6.614;2023-07-24T10:25:32;23.10;99.90
52943;DHT22;38809;53.300;6.614;2023-07-24T10:28:03;23.10;99.90
52943;DHT22;38809;53.300;6.614;2023-07-24T10:30:33;22.80;99.90
52943;DHT22;38809;53.300;6.614;2023-07-24T10:33:21;22.20;99.90
52943;DHT22;38809;53.300;6.614;2023-07-24T10:35:54;21.60;99.90
52943;DHT22;38809;53.300;6.614;2023-07-24T10:38:20;21.20;99.90
52943;DHT22;38809;53.300;6.614;2023-07-24T10:41:02;20.90;99.90
52943;DHT22;38809;53.300;6.614;2023-07-24T10:43:29;20.10;99.90
52943;DHT22;38809;53.300;6.614;2023-07-24T10:46:04;19.90;99.90
52943;DHT22;38809;53.300;6.614;2023-07-24T10:48:30;19.70;99.90
52943;DHT22;38809;53.300;6.614;2023-07-24T10:50:56;19.60;99.90
52943;DHT22;38809;53.300;6.614;2023-07-24T10:53:22;19.50;99.90
52943;DHT22;38809;53.300;6.614;2023-07-24T10:55:49;19.60;99.90
52943;DHT22;38809;53.300;6.614;2023-07-24T10:58:16;19.60;99.90
52943;DHT22;38809;53.300;6.614;2023-07-24T11:00:43;19.70;99.90
52943;DHT22;38809;53.300;6.614;2023-07-24T11:03:14;19.80;99.90
52943;DHT22;38809;53.300;6.614;2023-07-24T11:05:44;20.00;99.90
52943;DHT22;38809;53.300;6.614;2023-07-24T11:08:18;19.90;99.90
52943;DHT22;38809;53.300;6.614;2023-07-24T11:10:54;20.00;99.90
52943;DHT22;38809;53.300;6.614;2023-07-24T11:13:27;20.00;99.90
52943;DHT22;38809;53.300;6.614;2023-07-24T11:15:54;20.00;99.90
52943;DHT22;38809;53.300;6.614;2023-07-24T11:18:21;19.90;99.90
52943;DHT22;38809;53.300;6.614;2023-07-24T11:20:52;19.70;99.90
52943;DHT22;38809;53.300;6.614;2023-07-24T11:23:18;19.90;99.90
52943;DHT22;38809;53.300;6.614;2023-07-24T11:25:44;19.70;99.90
52943;DHT22;38809;53.300;6.614;2023-07-24T11:28:11;19.90;99.90
52943;DHT22;38809;53.300;6.614;2023-07-24T11:30:38;19.80;99.90
52943;DHT22;38809;53.300;6.614;2023-07-24T11:33:05;19.50;99.90
52943;DHT22;38809;53.300;6.614;2023-07-24T11:35:32;19.70;99.90
52943;DHT22;38809;53.300;6.614;2023-07-24T11:37:58;19.70;99.90
52943;DHT22;38809;53.300;6.614;2023-07-24T11:40:38;19.70;99.90
52943;DHT22;38809;53.300;6.614;2023-07-24T11:43:04;19.80;99.90
52943;DHT22;38809;53.300;6.614;2023-07-24T11:45:30;20.00;99.90
52943;DHT22;38809;53.300;6.614;2023-07-24T11:47:56;20.10;99.90
52943;DHT22;38809;53.300;6.614;2023-07-24T11:50:23;20.20;99.90
52943;DHT22;38809;53.300;6.614;2023-07-24T11:52:51;20.40;99.90
52943;DHT22;38809;53.300;6.614;2023-07-24T11:55:18;20.70;99.90
52943;DHT22;38809;53.300;6.614;2023-07-24T11:57:59;20.80;99.90
52943;DHT22;38809;53.300;6.614;2023-07-24T12:00:25;21.10;99.90
52943;DHT22;38809;53.300;6.614;2023-07-24T12:02:51;21.20;99.90
52943;DHT22;38809;53.300;6.614;2023-07-24T12:05:18;21.30;99.90
52943;DHT22;38809;53.300;6.614;2023-07-24T12:07:44;21.80;99.90
52943;DHT22;38809;53.300;6.614;2023-07-24T12:10:12;21.70;99.90
52943;DHT22;38809;53.300;6.614;2023-07-24T12:12:46;21.20;99.90
52943;DHT22;38809;53.300;6.614;2023-07-24T12:15:13;20.90;99.90
52943;DHT22;38809;53.300;6.614;2023-07-24T12:17:39;20.80;99.90
52943;DHT22;38809;53.300;6.614;2023-07-24T12:20:06;20.70;99.90
52943;DHT22;38809;53.300;6.614;2023-07-24T12:22:34;20.60;99.90
52943;DHT22;38809;53.300;6.614;2023-07-24T12:25:01;20.50;99.90
52943;DHT22;38809;53.300;6.614;2023-07-24T12:27:26;20.20;99.90
52943;DHT22;38809;53.300;6.614;2023-07-24T12:29:52;20.20;99.90
52943;DHT22;38809;53.300;6.614;2023-07-24T12:32:18;20.00;99.90
52943;DHT22;38809;53.300;6.614;2023-07-24T12:34:46;19.90;99.90
52943;DHT22;38809;53.300;6.614;2023-07-24T12:37:12;19.80;99.90
52943;DHT22;38809;53.300;6.614;2023-07-24T12:39:38;19.70;99.90
52943;DHT22;38809;53.300;6.614;2023-07-24T12:42:04;19.60;99.90
52943;DHT22;38809;53.300;6.614;2023-07-24T12:44:31;19.50;99.90
52943;DHT22;38809;53.300;6.614;2023-07-24T12:46:57;19.30;99.90
52943;DHT22;38809;53.300;6.614;2023-07-24T12:49:23;19.30;99.90
52943;DHT22;38809;53.300;6.614;2023-07-24T12:51:49;19.30;99.90
52943;DHT22;38809;53.300;6.614;2023-07-24T12:54:14;19.20;99.90
52943;DHT22;38809;53.300;6.614;2023-07-24T12:56:40;19.20;99.90
52943;DHT22;38809;53.300;6.614;2023-07-24T12:59:06;19.20;99.90
52943;DHT22;38809;53.300;6.614;2023-07-24T13:01:32;19.10;99.90
52943;DHT22;38809;53.300;6.614;2023-07-24T13:03:57;19.10;99.90
52943;DHT22;38809;53.300;6.614;2023-07-24T13:06:24;19.30;99.90
52943;DHT22;38809;53.300;6.614;2023-07-24T13:08:50;19.20;99.90
52943;DHT22;38809;53.300;6.614;2023-07-24T13:11:16;19.10;99.90
52943;DHT22;38809;53.300;6.614;2023-07-24T13:13:41;19.20;99.90
52943;DHT22;38809;53.300;6.614;2023-07-24T13:16:07;19.20;99.90
52943;DHT22;38809;53.300;6.614;2023-07-24T13:18:33;19.30;99.90
52943;DHT22;38809;53.300;6.614;2023-07-24T13:20:59;19.40;99.90
52943;DHT22;38809;53.300;6.614;2023-07-24T13:23:25;19.30;99.90
52943;DHT22;38809;53.300;6.614;2023-07-24T13:25:52;19.30;99.90
52943;DHT22;38809;53.300;6.614;2023-07-24T13:28:18;19.30;99.90
52943;DHT22;38809;53.300;6.614;2023-07-24T13:30:45;19.40;99.90
52943;DHT22;38809;53.300;6.614;2023-07-24T13:33:11;19.50;99.90
52943;DHT22;38809;53.300;6.614;2023-07-24T13:35:37;19.50;99.90
52943;DHT22;38809;53.300;6.614;2023-07-24T13:38:02;19.60;99.90
52943;DHT22;38809;53.300;6.614;2023-07-24T13:40:28;19.50;99.90
52943;DHT22;38809;53.300;6.614;2023-07-24T13:42:54;19.60;99.90
52943;DHT22;38809;53.300;6.614;2023-07-24T13:45:19;20.10;99.90
52943;DHT22;38809;53.300;6.614;2023-07-24T13:47:45;20.00;99.90
52943;DHT22;38809;53.300;6.614;2023-07-24T13:50:11;19.80;99.90
52943;DHT22;38809;53.300;6.614;2023-07-24T13:52:36;19.90;99.90
52943;DHT22;38809;53.300;6.614;2023-07-24T13:55:03;19.90;99.90
52943;DHT22;38809;53.300;6.614;2023-07-24T13:57:28;19.80;99.90
52943;DHT22;38809;53.300;6.614;2023-07-24T13:59:54;20.00;99.90
52943;DHT22;38809;53.300;6.614;2023-07-24T14:02:19;20.10;99.90
52943;DHT22;38809;53.300;6.614;2023-07-24T14:04:45;20.00;99.90
52943;DHT22;38809;53.300;6.614;2023-07-24T14:07:11;19.60;99.90
52943;DHT22;38809;53.300;6.614;2023-07-24T14:09:38;19.50;99.90
52943;DHT22;38809;53.300;6.614;2023-07-24T14:12:05;19.30;99.90
52943;DHT22;38809;53.300;6.614;2023-07-24T14:14:30;19.00;99.90
52943;DHT22;38809;53.300;6.614;2023-07-24T14:16:57;18.90;99.90
52943;DHT22;38809;53.300;6.614;2023-07-24T14:19:23;19.10;99.90
52943;DHT22;38809;53.300;6.614;2023-07-24T14:21:51;18.60;99.90
52943;DHT22;38809;53.300;6.614;2023-07-24T14:24:17;19.00;99.90
52943;DHT22;38809;53.300;6.614;2023-07-24T14:26:43;18.70;99.90
52943;DHT22;38809;53.300;6.614;2023-07-24T14:29:10;18.60;99.90
52943;DHT22;38809;53.300;6.614;2023-07-24T14:31:36;18.80;99.90
52943;DHT22;38809;53.300;6.614;2023-07-24T14:34:03;18.60;99.90
52943;DHT22;38809;53.300;6.614;2023-07-24T14:36:29;18.70;99.90
52943;DHT22;38809;53.300;6.614;2023-07-24T14:39:00;18.50;99.90
52943;DHT22;38809;53.300;6.614;2023-07-24T14:41:26;18.60;99.90
52943;DHT22;38809;53.300;6.614;2023-07-24T14:43:52;18.60;99.90
52943;DHT22;38809;53.300;6.614;2023-07-24T14:46:18;18.60;99.90
52943;DHT22;38809;53.300;6.614;2023-07-24T14:48:43;18.60;99.90
52943;DHT22;38809;53.300;6.614;2023-07-24T14:51:09;18.30;99.90
52943;DHT22;38809;53.300;6.614;2023-07-24T14:53:35;18.00;99.90
52943;DHT22;38809;53.300;6.614;2023-07-24T14:56:03;17.80;99.90
52943;DHT22;38809;53.300;6.614;2023-07-24T14:58:29;18.00;99.90
52943;DHT22;38809;53.300;6.614;2023-07-24T15:00:54;18.00;99.90
52943;DHT22;38809;53.300;6.614;2023-07-24T15:03:20;17.60;99.90
52943;DHT22;38809;53.300;6.614;2023-07-24T15:05:46;17.60;99.90
52943;DHT22;38809;53.300;6.614;2023-07-24T15:08:12;17.50;99.90
52943;DHT22;38809;53.300;6.614;2023-07-24T15:10:37;17.40;99.90
52943;DHT22;38809;53.300;6.614;2023-07-24T15:13:03;17.50;99.90
52943;DHT22;38809;53.300;6.614;2023-07-24T15:15:29;17.50;99.90
52943;DHT22;38809;53.300;6.614;2023-07-24T15:17:55;17.40;99.90
52943;DHT22;38809;53.300;6.614;2023-07-24T15:20:21;17.70;99.90
52943;DHT22;38809;53.300;6.614;2023-07-24T15:22:47;17.60;99.90
52943;DHT22;38809;53.300;6.614;2023-07-24T15:25:13;18.00;99.90
52943;DHT22;38809;53.300;6.614;2023-07-24T15:27:39;18.00;99.90
52943;DHT22;38809;53.300;6.614;2023-07-24T15:30:05;18.00;99.90
52943;DHT22;38809;53.300;6.614;2023-07-24T15:32:31;17.80;99.90
52943;DHT22;38809;53.300;6.614;2023-07-24T15:34:57;17.80;99.90